createdAt,value
2017-05-29T00:00:47.359Z,0
2017-05-29T00:01:47.355Z,0
2017-05-29T00:02:47.403Z,0
2017-05-29T00:03:47.341Z,0
2017-05-29T00:04:47.328Z,0
2017-05-29T00:05:47.316Z,0
2017-05-29T00:06:47.303Z,0
2017-05-29T00:07:47.294Z,0
2017-05-29T00:08:47.287Z,0
2017-05-29T00:09:47.278Z,0
2017-05-29T00:10:46.968Z,0
2017-05-29T00:11:47.259Z,0
2017-05-29T00:12:47.251Z,0
2017-05-29T00:13:47.246Z,0
2017-05-29T00:14:47.235Z,0
2017-05-29T00:15:47.227Z,0
2017-05-29T00:16:46.917Z,0
2017-05-29T00:17:47.217Z,0
2017-05-29T00:18:47.207Z,0
2017-05-29T00:19:47.201Z,0
2017-05-29T00:20:47.186Z,0
2017-05-29T00:21:47.225Z,0
2017-05-29T00:22:46.861Z,0
2017-05-29T00:23:47.159Z,0
2017-05-29T00:24:46.850Z,0
2017-05-29T00:25:47.137Z,0
2017-05-29T00:26:47.125Z,0
2017-05-29T00:27:46.815Z,0
2017-05-29T00:28:47.108Z,0
2017-05-29T00:29:47.109Z,0
2017-05-29T00:30:47.092Z,0
2017-05-29T00:31:47.082Z,0
2017-05-29T00:32:47.067Z,0
2017-05-29T00:33:47.071Z,0
2017-05-29T00:34:46.759Z,0
2017-05-29T00:35:47.045Z,0
2017-05-29T00:36:46.733Z,0
2017-05-29T00:37:47.026Z,0
2017-05-29T00:38:46.723Z,0
2017-05-29T00:39:47.009Z,0
2017-05-29T00:40:46.705Z,0
2017-05-29T00:41:46.990Z,0
2017-05-29T00:42:46.985Z,0
2017-05-29T00:43:46.982Z,0
2017-05-29T00:44:46.669Z,0
2017-05-29T00:45:46.673Z,0
2017-05-29T00:46:46.954Z,0
2017-05-29T00:47:46.944Z,0
2017-05-29T00:48:46.938Z,0
2017-05-29T00:49:46.927Z,0
2017-05-29T00:50:46.919Z,0
2017-05-29T00:51:46.609Z,0
2017-05-29T00:52:46.895Z,0
2017-05-29T00:53:46.893Z,0
2017-05-29T00:54:46.885Z,0
2017-05-29T00:55:46.868Z,0
2017-05-29T00:56:46.860Z,0
2017-05-29T00:57:46.861Z,0
2017-05-29T00:58:46.247Z,0
2017-05-29T00:59:46.236Z,0
2017-05-29T01:00:46.833Z,0
2017-05-29T01:01:46.264Z,0
2017-05-29T01:02:46.508Z,0
2017-05-29T01:03:46.805Z,0
2017-05-29T01:04:46.800Z,0
2017-05-29T01:05:46.790Z,0
2017-05-29T01:06:46.482Z,0
2017-05-29T01:07:46.464Z,0
2017-05-29T01:08:46.464Z,0
2017-05-29T01:09:46.816Z,0
2017-05-29T01:10:46.739Z,0
2017-05-29T01:11:46.730Z,0
2017-05-29T01:12:46.732Z,0
2017-05-29T01:13:46.719Z,0
2017-05-29T01:14:46.711Z,0
2017-05-29T01:15:46.698Z,0
2017-05-29T01:16:46.693Z,0
2017-05-29T01:17:46.691Z,0
2017-05-29T01:18:46.673Z,0
2017-05-29T01:19:46.664Z,0
2017-05-29T01:20:46.663Z,0
2017-05-29T01:21:46.644Z,0
2017-05-29T01:22:46.638Z,0
2017-05-29T01:23:46.639Z,0
2017-05-29T01:24:46.322Z,0
2017-05-29T01:25:46.612Z,0
2017-05-29T01:26:46.669Z,0
2017-05-29T01:27:46.601Z,0
2017-05-29T01:28:46.595Z,0
2017-05-29T01:29:46.581Z,0
2017-05-29T01:30:46.570Z,0
2017-05-29T01:31:46.557Z,0
2017-05-29T01:32:46.548Z,0
2017-05-29T01:33:46.240Z,0
2017-05-29T01:34:46.534Z,0
2017-05-29T01:35:46.527Z,0
2017-05-29T01:36:46.528Z,0
2017-05-29T01:37:46.513Z,0
2017-05-29T01:38:46.507Z,0
2017-05-29T01:39:46.487Z,0
2017-05-29T01:40:46.483Z,0
2017-05-29T01:41:46.469Z,0
2017-05-29T01:42:46.464Z,0
2017-05-29T01:43:46.200Z,0
2017-05-29T01:44:46.448Z,0
2017-05-29T01:45:46.451Z,0
2017-05-29T01:46:46.434Z,0
2017-05-29T01:47:46.125Z,0
2017-05-29T01:48:46.420Z,0
2017-05-29T01:49:46.105Z,0
2017-05-29T01:50:46.083Z,0
2017-05-29T01:51:46.088Z,0
2017-05-29T01:52:46.383Z,0
2017-05-29T01:53:46.371Z,0
2017-05-29T01:54:46.367Z,0
2017-05-29T01:55:46.350Z,0
2017-05-29T01:56:46.030Z,0
2017-05-29T01:57:46.337Z,0
2017-05-29T01:58:46.522Z,0
2017-05-29T01:59:46.315Z,0
2017-05-29T02:00:46.304Z,0
2017-05-29T02:01:46.294Z,0
2017-05-29T02:02:46.289Z,0
2017-05-29T02:03:46.477Z,0
2017-05-29T02:04:46.282Z,0
2017-05-29T02:05:46.265Z,0
2017-05-29T02:06:46.255Z,0
2017-05-29T02:07:46.254Z,0
2017-05-29T02:08:45.928Z,0
2017-05-29T02:09:46.224Z,0
2017-05-29T02:10:46.212Z,0
2017-05-29T02:11:46.205Z,0
2017-05-29T02:12:45.896Z,0
2017-05-29T02:13:46.184Z,0
2017-05-29T02:14:45.571Z,0
2017-05-29T02:15:45.866Z,0
2017-05-29T02:16:46.156Z,0
2017-05-29T02:17:45.852Z,0
2017-05-29T02:18:46.139Z,0
2017-05-29T02:19:45.832Z,0
2017-05-29T02:20:46.119Z,0
2017-05-29T02:21:46.115Z,0
2017-05-29T02:22:46.103Z,0
2017-05-29T02:23:45.794Z,0
2017-05-29T02:24:46.087Z,0
2017-05-29T02:25:45.770Z,0
2017-05-29T02:26:45.770Z,0
2017-05-29T02:27:46.061Z,0
2017-05-29T02:28:46.047Z,0
2017-05-29T02:29:46.037Z,0
2017-05-29T02:30:45.725Z,0
2017-05-29T02:31:46.022Z,0
2017-05-29T02:32:45.711Z,0
2017-05-29T02:33:46.001Z,0
2017-05-29T02:34:45.992Z,0
2017-05-29T02:35:45.987Z,0
2017-05-29T02:36:45.976Z,0
2017-05-29T02:37:45.967Z,0
2017-05-29T02:38:45.982Z,0
2017-05-29T02:39:45.962Z,0
2017-05-29T02:40:45.941Z,0
2017-05-29T02:41:59.019Z,0
2017-05-29T02:42:45.626Z,0
2017-05-29T02:43:45.910Z,0
2017-05-29T02:44:45.899Z,0
2017-05-29T02:45:45.897Z,0
2017-05-29T02:46:45.881Z,0
2017-05-29T02:47:45.877Z,0
2017-05-29T02:48:45.862Z,0
2017-05-29T02:49:45.860Z,0
2017-05-29T02:50:45.845Z,0
2017-05-29T02:51:45.842Z,0
2017-05-29T02:52:45.826Z,0
2017-05-29T02:53:45.823Z,0
2017-05-29T02:54:45.811Z,0
2017-05-29T02:55:45.803Z,0
2017-05-29T02:56:45.795Z,0
2017-05-29T02:57:45.491Z,0
2017-05-29T02:58:45.779Z,0
2017-05-29T02:59:45.465Z,0
2017-05-29T03:00:45.458Z,0
2017-05-29T03:01:45.811Z,0
2017-05-29T03:02:45.441Z,0
2017-05-29T03:03:45.435Z,0
2017-05-29T03:04:45.721Z,0
2017-05-29T03:05:45.710Z,0
2017-05-29T03:06:45.697Z,0
2017-05-29T03:07:45.697Z,0
2017-05-29T03:08:45.588Z,0
2017-05-29T03:09:45.380Z,5
2017-05-29T03:10:45.360Z,5
2017-05-29T03:11:45.657Z,5
2017-05-29T03:12:45.347Z,5
2017-05-29T03:13:45.549Z,5
2017-05-29T03:14:45.630Z,5
2017-05-29T03:15:45.617Z,10
2017-05-29T03:16:45.319Z,10
2017-05-29T03:17:45.298Z,10
2017-05-29T03:18:45.591Z,10
2017-05-29T03:19:45.802Z,15
2017-05-29T06:49:30.285Z,1920
2017-05-29T06:50:30.584Z,1895
2017-05-29T06:51:30.574Z,1930
2017-05-29T06:52:30.614Z,1970
2017-05-29T06:53:30.573Z,2150
2017-05-29T06:54:30.570Z,2360
2017-05-29T06:55:30.266Z,2295
2017-05-29T06:56:30.563Z,2260
2017-05-29T06:57:30.560Z,2195
2017-05-29T06:58:30.554Z,2275
2017-05-29T06:59:30.249Z,2435
2017-05-29T07:00:30.249Z,2385
2017-05-29T07:01:30.241Z,2150
2017-05-29T07:02:30.249Z,2145
2017-05-29T07:03:30.543Z,2100
2017-05-29T07:04:30.544Z,2020
2017-05-29T07:05:30.529Z,2210
2017-05-29T07:06:30.526Z,2335
2017-05-29T07:07:30.223Z,2120
2017-05-29T07:08:30.527Z,2200
2017-05-29T07:09:30.220Z,2240
2017-05-29T07:10:30.219Z,2180
2017-05-29T07:11:30.516Z,2365
2017-05-29T07:12:30.514Z,2720
2017-05-29T07:13:30.211Z,2680
2017-05-29T07:14:30.526Z,2385
2017-05-29T07:15:30.504Z,2125
2017-05-29T07:16:30.200Z,2065
2017-05-29T07:17:30.200Z,2210
2017-05-29T07:18:30.198Z,2100
2017-05-29T07:19:30.557Z,1990
2017-05-29T07:20:29.880Z,1975
2017-05-29T07:21:30.182Z,2405
2017-05-29T07:22:30.175Z,2915
2017-05-29T07:23:30.475Z,2550
2017-05-29T07:24:30.175Z,2175
2017-05-29T07:25:30.172Z,2220
2017-05-29T07:26:30.167Z,2325
2017-05-29T07:27:30.162Z,2400
2017-05-29T07:28:30.160Z,2745
2017-05-29T07:29:30.217Z,2805
2017-05-29T07:30:30.147Z,2740
2017-05-29T07:31:30.150Z,2780
2017-05-29T07:32:30.446Z,2995
2017-05-29T07:33:30.145Z,3245
2017-05-29T07:34:30.147Z,3130
2017-05-29T07:35:29.865Z,2560
2017-05-29T07:36:29.829Z,2585
2017-05-29T07:37:30.139Z,3305
2017-05-29T07:38:30.128Z,3565
2017-05-29T07:39:29.828Z,3045
2017-05-29T07:40:30.120Z,2690
2017-05-29T07:41:30.120Z,2710
2017-05-29T07:42:30.118Z,3175
2017-05-29T07:43:30.417Z,3620
2017-05-29T07:44:30.106Z,3605
2017-05-29T07:45:29.800Z,3170
2017-05-29T07:46:30.104Z,3150
2017-05-29T07:47:30.400Z,3520
2017-05-29T07:48:30.099Z,3125
2017-05-29T07:49:30.093Z,3185
2017-05-29T07:50:29.792Z,3330
2017-05-29T07:51:30.143Z,3260
2017-05-29T07:52:30.399Z,3110
2017-05-29T07:53:29.784Z,3015
2017-05-29T07:54:30.377Z,3435
2017-05-29T07:55:30.076Z,3350
2017-05-29T07:56:30.074Z,3145
2017-05-29T07:57:30.071Z,3350
2017-05-29T07:58:30.079Z,3295
2017-05-29T07:59:30.150Z,3605
2017-05-29T08:00:29.771Z,3460
2017-05-29T08:01:30.068Z,3720
2017-05-29T08:02:30.061Z,3945
2017-05-29T08:03:29.761Z,3730
2017-05-29T08:04:30.067Z,3410
2017-05-29T08:05:30.367Z,2960
2017-05-29T08:06:30.057Z,3130
2017-05-29T08:07:30.357Z,3575
2017-05-29T08:08:30.362Z,3370
2017-05-29T08:09:29.753Z,2835
2017-05-29T08:10:30.049Z,2885
2017-05-29T08:11:30.048Z,3255
2017-05-29T08:12:30.095Z,3400
2017-05-29T08:13:30.043Z,3285
2017-05-29T08:14:30.044Z,3145
2017-05-29T08:15:29.737Z,3305
2017-05-29T08:16:30.049Z,3900
2017-05-29T08:17:30.036Z,4015
2017-05-29T08:18:30.040Z,3415
2017-05-29T08:19:30.354Z,3475
2017-05-29T08:20:30.035Z,3950
2017-05-29T08:21:29.727Z,3485
2017-05-29T08:22:29.732Z,3275
2017-05-29T08:23:30.028Z,3650
2017-05-29T08:24:30.033Z,3140
2017-05-29T08:25:30.023Z,2830
2017-05-29T08:26:30.025Z,3510
2017-05-29T08:27:30.328Z,3850
2017-05-29T08:28:30.019Z,3760
2017-05-29T08:29:30.014Z,3705
2017-05-29T08:30:30.318Z,4240
2017-05-29T08:31:29.709Z,4435
2017-05-29T08:32:30.316Z,4425
2017-05-29T08:33:30.328Z,4780
2017-05-29T08:34:30.314Z,4170
2017-05-29T08:35:30.007Z,3715
2017-05-29T08:36:29.700Z,3560
2017-05-29T08:37:30.302Z,2870
2017-05-29T08:38:30.003Z,2850
2017-05-29T08:39:29.993Z,3695
2017-05-29T08:40:29.993Z,4295
2017-05-29T08:41:30.281Z,4815
2017-05-29T08:42:29.989Z,4340
2017-05-29T08:43:29.988Z,3535
2017-05-29T08:44:29.679Z,4010
2017-05-29T08:45:29.969Z,5110
2017-05-29T08:46:29.976Z,4900
2017-05-29T08:47:30.274Z,3360
2017-05-29T08:48:29.963Z,2275
2017-05-29T08:49:30.275Z,1980
2017-05-29T08:50:29.963Z,1950
2017-05-29T08:51:29.662Z,2035
2017-05-29T08:52:29.661Z,2400
2017-05-29T08:53:29.953Z,3015
2017-05-29T08:54:30.258Z,4090
2017-05-29T08:55:30.251Z,5040
2017-05-29T08:56:30.253Z,4680
2017-05-29T08:57:29.643Z,4500
2017-05-29T08:58:30.258Z,4545
2017-05-29T08:59:29.644Z,3980
2017-05-29T09:00:30.241Z,3350
2017-05-29T09:01:30.240Z,3870
2017-05-29T09:02:29.936Z,3925
2017-05-29T09:03:29.932Z,3440
2017-05-29T09:04:29.937Z,4315
2017-05-29T09:05:30.232Z,5170
2017-05-29T09:06:30.228Z,4725
2017-05-29T09:07:29.627Z,3665
2017-05-29T09:08:29.622Z,3650
2017-05-29T09:09:30.225Z,4230
2017-05-29T09:10:30.218Z,4020
2017-05-29T09:11:30.215Z,4275
2017-05-29T09:12:29.611Z,4250
2017-05-29T09:13:30.212Z,3945
2017-05-29T09:14:29.903Z,3485
2017-05-29T09:15:30.204Z,3680
2017-05-29T09:16:30.206Z,4455
2017-05-29T09:17:29.892Z,4105
2017-05-29T09:18:30.198Z,3410
2017-05-29T09:19:30.197Z,4555
2017-05-29T09:20:30.190Z,5185
2017-05-29T09:21:30.193Z,4830
2017-05-29T09:22:29.890Z,4505
2017-05-29T09:23:30.183Z,3815
2017-05-29T09:24:30.177Z,3780
2017-05-29T09:25:30.179Z,3810
2017-05-29T09:26:30.191Z,3970
2017-05-29T09:27:29.871Z,4310
2017-05-29T09:28:30.175Z,4665
2017-05-29T09:29:30.175Z,5065
2017-05-29T09:30:29.862Z,4760
2017-05-29T09:31:30.176Z,4555
2017-05-29T09:32:30.167Z,4530
2017-05-29T09:33:30.173Z,4345
2017-05-29T09:34:30.165Z,4690
2017-05-29T09:35:29.861Z,4330
2017-05-29T09:36:30.162Z,3970
2017-05-29T09:37:30.148Z,4280
2017-05-29T09:38:30.160Z,4095
2017-05-29T09:39:30.157Z,4025
2017-05-29T09:40:30.150Z,4420
2017-05-29T09:41:29.846Z,5155
2017-05-29T09:42:29.848Z,5500
2017-05-29T09:43:30.151Z,5015
2017-05-29T09:44:29.844Z,4720
2017-05-29T09:45:29.841Z,4660
2017-05-29T09:46:29.844Z,4755
2017-05-29T09:47:30.138Z,4565
2017-05-29T09:48:30.146Z,4200
2017-05-29T09:49:30.142Z,5055
2017-05-29T09:50:29.838Z,5080
2017-05-29T09:51:29.834Z,4645
2017-05-29T09:52:30.135Z,4515
2017-05-29T09:53:30.133Z,4090
2017-05-29T09:54:30.132Z,4705
2017-05-29T09:55:30.133Z,5405
2017-05-29T09:56:30.128Z,5425
2017-05-29T09:57:29.834Z,5345
2017-05-29T09:58:30.130Z,4580
2017-05-29T09:59:29.831Z,4070
2017-05-29T10:00:30.131Z,3810
2017-05-29T10:01:29.821Z,4075
2017-05-29T10:02:30.130Z,4945
2017-05-29T10:03:30.127Z,5245
2017-05-29T10:04:29.520Z,4970
2017-05-29T10:05:29.823Z,4940
2017-05-29T10:06:30.122Z,4830
2017-05-29T10:07:30.126Z,4600
2017-05-29T10:08:30.128Z,4615
2017-05-29T10:09:29.822Z,4110
2017-05-29T10:10:29.818Z,4305
2017-05-29T10:11:30.121Z,4730
2017-05-29T10:12:29.817Z,5100
2017-05-29T10:13:29.817Z,5230
2017-05-29T10:14:29.510Z,5230
2017-05-29T10:15:29.820Z,5165
2017-05-29T10:16:30.172Z,5240
2017-05-29T10:17:29.507Z,5085
2017-05-29T10:18:30.109Z,5380
2017-05-29T10:19:29.816Z,5170
2017-05-29T10:20:29.812Z,4860
2017-05-29T10:21:29.818Z,5080
2017-05-29T10:22:30.112Z,5060
2017-05-29T10:23:29.205Z,5100
2017-05-29T10:24:30.106Z,5030
2017-05-29T10:25:29.504Z,4730
2017-05-29T10:26:29.503Z,4490
2017-05-29T10:27:29.809Z,4605
2017-05-29T10:28:30.109Z,4860
2017-05-29T10:29:29.809Z,4455
2017-05-29T10:30:29.810Z,4375
2017-05-29T10:31:29.805Z,4405
2017-05-29T10:32:30.104Z,4220
2017-05-29T10:33:30.098Z,4630
2017-05-29T10:34:30.103Z,4875
2017-05-29T10:35:30.106Z,5435
2017-05-29T10:36:29.501Z,5635
2017-05-29T10:37:29.801Z,5205
2017-05-29T10:38:29.797Z,5160
2017-05-29T10:39:29.803Z,4780
2017-05-29T10:40:30.101Z,4890
2017-05-29T10:41:30.108Z,5425
2017-05-29T10:42:30.096Z,5295
2017-05-29T10:43:29.793Z,5305
2017-05-29T10:44:29.803Z,4945
2017-05-29T10:45:30.108Z,4720
2017-05-29T10:46:30.093Z,4685
2017-05-29T10:47:30.090Z,4730
2017-05-29T10:48:30.102Z,5150
2017-05-29T10:49:30.096Z,5315
2017-05-29T10:50:29.785Z,4465
2017-05-29T10:51:30.092Z,4665
2017-05-29T10:52:29.787Z,5255
2017-05-29T10:53:29.785Z,4925
2017-05-29T10:54:29.785Z,4990
2017-05-29T10:55:29.785Z,6050
2017-05-29T10:56:29.783Z,6500
2017-05-29T10:57:29.775Z,5510
2017-05-29T10:58:29.788Z,4900
2017-05-29T10:59:29.781Z,5460
2017-05-29T11:00:30.081Z,5785
2017-05-29T11:01:29.779Z,6100
2017-05-29T11:02:29.786Z,5935
2017-05-29T11:03:29.785Z,5785
2017-05-29T11:04:29.833Z,6085
2017-05-29T11:05:29.474Z,6050
2017-05-29T11:06:30.079Z,4600
2017-05-29T11:07:30.074Z,4950
2017-05-29T11:08:30.077Z,5610
2017-05-29T11:09:29.769Z,6290
2017-05-29T11:10:30.078Z,6290
2017-05-29T11:11:29.502Z,1440
2017-05-29T11:12:30.078Z,1405
2017-05-29T11:13:29.772Z,5775
2017-05-29T11:14:30.081Z,5000
2017-05-29T11:15:29.773Z,4280
2017-05-29T11:16:30.100Z,4965
2017-05-29T11:17:30.081Z,5340
2017-05-29T11:18:30.075Z,5500
2017-05-29T11:19:29.778Z,5400
2017-05-29T11:20:29.770Z,5445
2017-05-29T11:21:29.782Z,5520
2017-05-29T11:22:30.087Z,5145
2017-05-29T11:23:30.075Z,5690
2017-05-29T11:24:30.077Z,5555
2017-05-29T11:25:30.079Z,5730
2017-05-29T11:26:30.080Z,5515
2017-05-29T11:27:29.779Z,4285
2017-05-29T11:28:30.078Z,4260
2017-05-29T11:29:29.778Z,4905
2017-05-29T11:30:29.778Z,5130
2017-05-29T11:31:30.077Z,5030
2017-05-29T11:32:30.075Z,5505
2017-05-29T11:33:29.774Z,6950
2017-05-29T11:34:30.077Z,7170
2017-05-29T11:35:29.777Z,6110
2017-05-29T11:36:30.082Z,6460
2017-05-29T11:37:29.778Z,6740
2017-05-29T11:38:30.081Z,6345
2017-05-29T11:39:30.076Z,5750
2017-05-29T11:40:29.777Z,5210
2017-05-29T11:41:30.085Z,3560
2017-05-29T11:42:30.077Z,3445
2017-05-29T11:43:30.084Z,3530
2017-05-29T11:44:30.076Z,2990
2017-05-29T11:45:30.072Z,2560
2017-05-29T11:46:30.082Z,2170
2017-05-29T11:47:30.079Z,2065
2017-05-29T11:48:30.079Z,2040
2017-05-29T11:49:30.089Z,2060
2017-05-29T11:50:30.082Z,2275
2017-05-29T11:51:30.083Z,2585
2017-05-29T11:52:30.077Z,2405
2017-05-29T11:53:30.081Z,2340
2017-05-29T11:54:30.088Z,2710
2017-05-29T11:55:30.086Z,3340
2017-05-29T11:56:30.084Z,4245
2017-05-29T11:57:30.083Z,4490
2017-05-29T11:58:30.091Z,4450
2017-05-29T11:59:30.089Z,4680
2017-05-29T12:00:30.090Z,4555
2017-05-29T12:01:30.092Z,4945
2017-05-29T12:02:30.093Z,5875
2017-05-29T12:03:30.085Z,5145
2017-05-29T12:04:30.084Z,4410
2017-05-29T12:05:30.086Z,5470
2017-05-29T12:06:30.087Z,7735
2017-05-29T12:07:29.785Z,8235
2017-05-29T12:08:29.789Z,7130
2017-05-29T12:09:30.097Z,5275
2017-05-29T12:10:29.485Z,4395
2017-05-29T12:11:30.097Z,4845
2017-05-29T12:12:30.092Z,5920
2017-05-29T12:13:30.090Z,6825
2017-05-29T12:14:30.088Z,6910
2017-05-29T12:15:30.097Z,6565
2017-05-29T12:16:30.095Z,5800
2017-05-29T12:17:30.092Z,5300
2017-05-29T12:18:29.797Z,4935
2017-05-29T12:19:30.124Z,4765
2017-05-29T12:20:29.793Z,4585
2017-05-29T12:21:30.097Z,4150
2017-05-29T12:22:29.492Z,4065
2017-05-29T12:23:30.096Z,4340
2017-05-29T12:24:30.099Z,4980
2017-05-29T12:25:29.795Z,5530
2017-05-29T12:26:30.105Z,6425
2017-05-29T12:27:30.100Z,6305
2017-05-29T12:28:30.097Z,5685
2017-05-29T12:29:30.097Z,5500
2017-05-29T12:30:30.101Z,4605
2017-05-29T12:31:29.852Z,4525
2017-05-29T12:32:30.098Z,5320
2017-05-29T12:33:30.110Z,5220
2017-05-29T12:34:30.110Z,4265
2017-05-29T12:35:30.096Z,5335
2017-05-29T12:36:30.091Z,4810
2017-05-29T12:37:30.084Z,5115
2017-05-29T12:38:30.088Z,5135
2017-05-29T12:39:30.082Z,5515
2017-05-29T12:40:29.782Z,1045
2017-05-29T12:41:30.084Z,1080
2017-05-29T12:42:29.786Z,1190
2017-05-29T12:43:29.773Z,3425
2017-05-29T12:44:29.771Z,3870
2017-05-29T12:45:29.770Z,4310
2017-05-29T12:46:30.075Z,4115
2017-05-29T12:47:29.776Z,4455
2017-05-29T12:48:30.062Z,2485
2017-05-29T12:49:30.064Z,960
2017-05-29T12:50:29.765Z,960
2017-05-29T12:51:30.061Z,1280
2017-05-29T12:52:29.754Z,4015
2017-05-29T12:53:29.752Z,1075
2017-05-29T12:54:29.758Z,975
2017-05-29T12:55:29.747Z,1090
2017-05-29T12:56:29.741Z,1145
2017-05-29T12:57:29.739Z,965
2017-05-29T12:58:29.741Z,1055
2017-05-29T12:59:30.092Z,1290
2017-05-29T13:00:30.032Z,1295
2017-05-29T13:01:30.032Z,1215
2017-05-29T13:02:30.034Z,1230
2017-05-29T13:03:30.020Z,1085
2017-05-29T13:04:30.014Z,995
2017-05-29T13:05:29.710Z,935
2017-05-29T13:06:29.710Z,935
2017-05-29T13:07:29.704Z,950
2017-05-29T13:08:29.997Z,1040
2017-05-29T13:09:30.000Z,1330
2017-05-29T13:10:29.687Z,4810
2017-05-29T13:11:29.991Z,1855
2017-05-29T13:12:29.681Z,1155
2017-05-29T13:13:29.679Z,970
2017-05-29T13:14:29.669Z,830
2017-05-29T13:15:29.683Z,810
2017-05-29T13:16:29.968Z,790
2017-05-29T13:17:29.714Z,740
2017-05-29T13:18:29.357Z,720
2017-05-29T13:19:29.653Z,730
2017-05-29T13:20:29.343Z,730
2017-05-29T13:21:29.639Z,745
2017-05-29T13:22:29.933Z,795
2017-05-29T13:23:29.321Z,855
2017-05-29T13:24:29.618Z,860
2017-05-29T13:25:29.615Z,895
2017-05-29T13:26:29.606Z,945
2017-05-29T13:27:29.301Z,985
2017-05-29T13:28:29.609Z,950
2017-05-29T13:29:29.903Z,935
2017-05-29T13:30:29.593Z,1030
2017-05-29T13:31:29.944Z,1130
2017-05-29T13:32:29.581Z,1240
2017-05-29T13:33:29.877Z,1365
2017-05-29T13:34:29.260Z,1410
2017-05-29T13:35:29.562Z,1525
2017-05-29T13:36:29.254Z,1350
2017-05-29T13:37:29.248Z,1195
2017-05-29T13:38:29.542Z,1080
2017-05-29T13:39:29.537Z,965
2017-05-29T13:40:29.545Z,900
2017-05-29T13:41:29.852Z,885
2017-05-29T13:42:29.216Z,885
2017-05-29T13:43:29.516Z,880
2017-05-29T13:44:29.206Z,870
2017-05-29T13:45:29.813Z,820
2017-05-29T13:46:29.505Z,780
2017-05-29T13:47:29.493Z,785
2017-05-29T13:48:29.188Z,820
2017-05-29T13:49:29.183Z,830
2017-05-29T13:50:29.178Z,835
2017-05-29T13:51:29.179Z,855
2017-05-29T13:52:29.770Z,835
2017-05-29T13:53:29.768Z,810
2017-05-29T13:54:29.759Z,810
2017-05-29T13:55:29.759Z,830
2017-05-29T13:56:29.444Z,855
2017-05-29T13:57:29.743Z,865
2017-05-29T13:58:29.140Z,870
2017-05-29T13:59:29.436Z,870
2017-05-29T14:00:29.430Z,865
2017-05-29T14:01:29.429Z,890
2017-05-29T14:02:29.418Z,930
2017-05-29T14:03:29.410Z,1000
2017-05-29T14:04:29.406Z,1095
2017-05-29T14:05:29.410Z,1175
2017-05-29T14:06:29.703Z,1200
2017-05-29T14:07:29.698Z,1210
2017-05-29T14:08:29.689Z,1200
2017-05-29T14:09:29.393Z,1140
2017-05-29T14:10:29.685Z,1055
2017-05-29T14:11:29.689Z,990
2017-05-29T14:12:29.672Z,980
2017-05-29T14:13:29.669Z,980
2017-05-29T14:14:29.669Z,995
2017-05-29T14:15:29.362Z,995
2017-05-29T14:16:29.354Z,950
2017-05-29T14:17:29.653Z,915
2017-05-29T14:18:29.347Z,895
2017-05-29T14:19:29.344Z,880
2017-05-29T14:20:29.341Z,935
2017-05-29T14:21:29.333Z,1020
2017-05-29T14:22:29.643Z,995
2017-05-29T14:23:29.329Z,925
2017-05-29T14:24:29.622Z,835
2017-05-29T14:25:29.314Z,775
2017-05-29T14:26:29.314Z,745
2017-05-29T14:27:29.307Z,735
2017-05-29T14:28:29.310Z,760
2017-05-29T14:29:29.595Z,815
2017-05-29T14:30:29.296Z,845
2017-05-29T14:31:29.292Z,850
2017-05-29T14:32:29.282Z,835
2017-05-29T14:33:28.980Z,790
2017-05-29T14:34:29.265Z,755
2017-05-29T14:35:29.266Z,755
2017-05-29T14:36:29.560Z,770
2017-05-29T14:37:29.555Z,780
2017-05-29T14:38:29.552Z,780
2017-05-29T14:39:29.547Z,780
2017-05-29T14:40:42.924Z,765
2017-05-29T14:41:29.236Z,770
2017-05-29T14:42:29.532Z,770
2017-05-29T14:43:29.223Z,765
2017-05-29T14:44:29.522Z,760
2017-05-29T14:45:29.511Z,735
2017-05-29T14:46:29.507Z,710
2017-05-29T14:47:29.500Z,700
2017-05-29T14:48:29.495Z,685
2017-05-29T14:49:29.486Z,675
2017-05-29T14:50:29.700Z,670
2017-05-29T14:51:29.482Z,680
2017-05-29T14:52:28.866Z,695
2017-05-29T14:53:29.162Z,710
2017-05-29T14:54:29.458Z,725
2017-05-29T14:55:29.452Z,730
2017-05-29T14:56:29.446Z,735
2017-05-29T14:57:29.445Z,740
2017-05-29T14:58:29.433Z,740
2017-05-29T14:59:29.429Z,695
2017-05-29T15:00:29.423Z,650
2017-05-29T15:01:29.416Z,605
2017-05-29T15:02:29.412Z,585
2017-05-29T15:03:29.425Z,580
2017-05-29T15:04:29.397Z,590
2017-05-29T15:05:29.400Z,575
2017-05-29T15:06:29.383Z,585
2017-05-29T15:07:29.084Z,605
2017-05-29T15:08:29.378Z,610
2017-05-29T15:09:29.065Z,610
2017-05-29T15:10:29.067Z,590
2017-05-29T15:11:29.352Z,565
2017-05-29T15:12:29.347Z,560
2017-05-29T15:13:28.737Z,570
2017-05-29T15:14:28.729Z,585
2017-05-29T15:15:29.329Z,610
2017-05-29T15:16:29.316Z,660
2017-05-29T15:17:29.318Z,1220
2017-05-29T15:18:29.305Z,2415
2017-05-29T15:19:28.998Z,3095
2017-05-29T15:20:29.361Z,2195
2017-05-29T15:21:29.289Z,1545
2017-05-29T15:22:29.345Z,2360
2017-05-29T15:23:28.980Z,2195
2017-05-29T15:24:28.967Z,1275
2017-05-29T15:25:28.960Z,970
2017-05-29T15:26:28.656Z,990
2017-05-29T15:27:28.952Z,1040
2017-05-29T15:28:28.647Z,1070
2017-05-29T15:29:29.240Z,1220
2017-05-29T15:30:28.635Z,1990
2017-05-29T15:31:28.928Z,3255
2017-05-29T15:32:28.925Z,2640
2017-05-29T15:33:28.916Z,1350
2017-05-29T15:34:29.216Z,2450
2017-05-29T15:35:28.914Z,1730
2017-05-29T15:36:28.908Z,2265
2017-05-29T15:37:28.904Z,1690
2017-05-29T15:38:29.422Z,2550
2017-05-29T15:39:29.189Z,2610
2017-05-29T15:40:28.580Z,2705
2017-05-29T15:41:28.878Z,2480
2017-05-29T15:42:28.878Z,2380
2017-05-29T15:43:28.867Z,2490
2017-05-29T15:44:28.861Z,2570
2017-05-29T15:45:28.856Z,2635
2017-05-29T15:46:28.849Z,2635
2017-05-29T15:47:29.157Z,2565
2017-05-29T15:48:28.844Z,2455
2017-05-29T15:49:28.543Z,2170
2017-05-29T15:50:29.141Z,1880
2017-05-29T15:51:29.058Z,2010
2017-05-29T15:52:28.515Z,2330
2017-05-29T15:53:28.813Z,2310
2017-05-29T15:54:28.506Z,2225
2017-05-29T15:55:28.802Z,2190
2017-05-29T15:56:29.101Z,2375
2017-05-29T15:57:28.695Z,2445
2017-05-29T15:58:29.092Z,2475
2017-05-29T15:59:28.783Z,2255
2017-05-29T16:00:29.080Z,2125
2017-05-29T16:01:43.464Z,2075
2017-05-29T16:02:28.970Z,1720
2017-05-29T16:03:28.759Z,2370
2017-05-29T16:04:28.454Z,2300
2017-05-29T16:05:28.464Z,2140
2017-05-29T16:06:29.042Z,2155
2017-05-29T16:07:28.432Z,2085
2017-05-29T16:08:28.422Z,2030
2017-05-29T16:09:28.726Z,2060
2017-05-29T16:10:29.016Z,2225
2017-05-29T16:11:29.013Z,2215
2017-05-29T16:12:29.002Z,2090
2017-05-29T16:13:28.991Z,2190
2017-05-29T16:14:28.993Z,2155
2017-05-29T16:15:28.980Z,1545
2017-05-29T16:16:28.971Z,1830
2017-05-29T16:17:28.970Z,1730
2017-05-29T16:18:28.666Z,1780
2017-05-29T16:19:28.960Z,655
2017-05-29T16:20:28.948Z,615
2017-05-29T16:21:28.936Z,640
2017-05-29T16:22:28.941Z,680
2017-05-29T16:23:28.624Z,755
2017-05-29T16:24:28.615Z,1070
2017-05-29T16:25:28.613Z,1210
2017-05-29T16:26:28.900Z,1270
2017-05-29T16:27:28.601Z,1690
2017-05-29T16:28:28.584Z,1580
2017-05-29T16:29:28.886Z,1470
2017-05-29T16:30:28.883Z,1630
2017-05-29T16:31:28.564Z,635
2017-05-29T16:32:28.861Z,1365
2017-05-29T16:33:29.058Z,1030
2017-05-29T16:34:28.850Z,1115
2017-05-29T16:35:28.831Z,1105
2017-05-29T16:36:28.825Z,1545
2017-05-29T16:37:28.846Z,1530
2017-05-29T16:38:29.014Z,1650
2017-05-29T16:39:29.010Z,1730
2017-05-29T16:40:28.785Z,1580
2017-05-29T16:41:28.775Z,1730
2017-05-29T16:42:28.771Z,1775
2017-05-29T16:43:28.968Z,1345
2017-05-29T16:44:28.753Z,895
2017-05-29T16:45:28.752Z,550
2017-05-29T16:46:28.439Z,525
2017-05-29T16:47:28.741Z,535
2017-05-29T16:48:28.728Z,545
2017-05-29T16:49:28.716Z,510
2017-05-29T16:50:28.709Z,500
2017-05-29T16:51:28.700Z,500
2017-05-29T16:52:28.695Z,480
2017-05-29T16:53:28.693Z,485
2017-05-29T16:54:28.074Z,460
2017-05-29T16:55:28.663Z,475
2017-05-29T16:56:28.355Z,460
2017-05-29T16:57:28.653Z,450
2017-05-29T16:58:28.647Z,455
2017-05-29T16:59:28.334Z,640
2017-05-29T17:00:28.625Z,465
2017-05-29T17:01:28.618Z,485
2017-05-29T17:02:28.620Z,1160
2017-05-29T17:03:28.604Z,845
2017-05-29T17:04:28.596Z,1220
2017-05-29T17:05:28.280Z,1275
2017-05-29T17:06:28.580Z,1160
2017-05-29T17:07:28.575Z,1200
2017-05-29T17:08:28.566Z,1205
2017-05-29T17:09:28.259Z,950
2017-05-29T17:10:28.755Z,995
2017-05-29T17:11:28.237Z,965
2017-05-29T17:12:28.527Z,835